sensor_id;sensor_type;location;lat;lon;timestamp;pressure;altitude;pressure_sealevel;temperature;humidity
46722;BME280;32455;43.430;23.136;2022-08-19T00:01:53;97745.63;;;23.89;54.17
46722;BME280;32455;43.430;23.136;2022-08-19T00:04:38;97730.72;;;23.64;54.71
46722;BME280;32455;43.430;23.136;2022-08-19T00:07:25;97722.88;;;23.40;55.65
46722;BME280;32455;43.430;23.136;2022-08-19T00:10:12;97744.03;;;23.40;56.48
46722;BME280;32455;43.430;23.136;2022-08-19T00:12:58;97738.22;;;23.41;56.80
46722;BME280;32455;43.430;23.136;2022-08-19T00:15:43;97735.44;;;23.33;56.97
46722;BME280;32455;43.430;23.136;2022-08-19T00:18:29;97726.72;;;23.31;57.19
46722;BME280;32455;43.430;23.136;2022-08-19T00:21:16;97726.72;;;23.31;56.83
46722;BME280;32455;43.430;23.136;2022-08-19T00:24:02;97725.19;;;23.47;55.41
46722;BME280;32455;43.430;23.136;2022-08-19T00:26:49;97722.69;;;23.85;53.20
46722;BME280;32455;43.430;23.136;2022-08-19T00:29:35;97739.38;;;24.15;51.88
46722;BME280;32455;43.430;23.136;2022-08-19T00:32:21;97711.91;;;24.23;50.86
46722;BME280;32455;43.430;23.136;2022-08-19T00:35:07;97723.41;;;24.34;50.93
46722;BME280;32455;43.430;23.136;2022-08-19T00:37:53;97719.72;;;24.39;50.15
46722;BME280;32455;43.430;23.136;2022-08-19T00:40:39;97721.47;;;24.52;49.65
46722;BME280;32455;43.430;23.136;2022-08-19T00:43:26;97733.94;;;24.58;49.35
46722;BME280;32455;43.430;23.136;2022-08-19T00:46:12;97724.84;;;24.58;48.99
46722;BME280;32455;43.430;23.136;2022-08-19T00:48:59;97720.84;;;24.55;49.27
46722;BME280;32455;43.430;23.136;2022-08-19T00:51:48;97729.88;;;24.64;49.53
46722;BME280;32455;43.430;23.136;2022-08-19T00:54:36;97726.16;;;24.60;49.42
46722;BME280;32455;43.430;23.136;2022-08-19T00:57:28;97721.66;;;24.38;51.82
46722;BME280;32455;43.430;23.136;2022-08-19T01:00:17;97722.56;;;23.90;53.82
46722;BME280;32455;43.430;23.136;2022-08-19T01:03:08;97725.59;;;23.80;53.84
46722;BME280;32455;43.430;23.136;2022-08-19T01:05:54;97739.56;;;23.61;55.57
46722;BME280;32455;43.430;23.136;2022-08-19T01:08:40;97734.69;;;23.49;55.74
46722;BME280;32455;43.430;23.136;2022-08-19T01:11:27;97722.72;;;23.37;56.29
46722;BME280;32455;43.430;23.136;2022-08-19T01:14:14;97711.19;;;23.17;56.64
46722;BME280;32455;43.430;23.136;2022-08-19T01:17:01;97734.72;;;23.18;57.39
46722;BME280;32455;43.430;23.136;2022-08-19T01:19:47;97729.03;;;23.06;57.22
46722;BME280;32455;43.430;23.136;2022-08-19T01:22:45;97735.50;;;23.10;58.16
46722;BME280;32455;43.430;23.136;2022-08-19T01:25:47;97735.97;;;23.12;58.61
46722;BME280;32455;43.430;23.136;2022-08-19T01:28:32;97732.53;;;22.98;58.17
46722;BME280;32455;43.430;23.136;2022-08-19T01:31:22;97724.44;;;22.93;58.14
46722;BME280;32455;43.430;23.136;2022-08-19T01:34:08;97741.63;;;22.85;58.56
46722;BME280;32455;43.430;23.136;2022-08-19T01:36:55;97729.41;;;22.68;59.48
46722;BME280;32455;43.430;23.136;2022-08-19T01:39:41;97746.41;;;22.79;59.84
46722;BME280;32455;43.430;23.136;2022-08-19T01:42:26;97731.75;;;22.53;61.07
46722;BME280;32455;43.430;23.136;2022-08-19T01:45:11;97729.50;;;22.32;61.80
46722;BME280;32455;43.430;23.136;2022-08-19T01:47:57;97753.66;;;22.16;63.02
46722;BME280;32455;43.430;23.136;2022-08-19T01:50:42;97742.53;;;22.35;62.78
46722;BME280;32455;43.430;23.136;2022-08-19T01:53:28;97724.06;;;22.05;63.23
46722;BME280;32455;43.430;23.136;2022-08-19T01:56:14;97726.38;;;22.11;63.75
46722;BME280;32455;43.430;23.136;2022-08-19T01:59:05;97745.59;;;22.34;63.39
46722;BME280;32455;43.430;23.136;2022-08-19T02:01:52;97737.34;;;22.11;63.99
46722;BME280;32455;43.430;23.136;2022-08-19T02:04:38;97734.84;;;21.87;64.77
46722;BME280;32455;43.430;23.136;2022-08-19T02:07:23;97732.34;;;21.63;66.70
46722;BME280;32455;43.430;23.136;2022-08-19T02:10:12;97725.78;;;21.50;67.16
46722;BME280;32455;43.430;23.136;2022-08-19T02:12:58;97721.84;;;21.43;66.83
46722;BME280;32455;43.430;23.136;2022-08-19T02:15:43;97723.03;;;21.37;68.03
46722;BME280;32455;43.430;23.136;2022-08-19T02:18:29;97725.38;;;21.43;67.16
46722;BME280;32455;43.430;23.136;2022-08-19T02:21:18;97740.25;;;21.51;66.84
46722;BME280;32455;43.430;23.136;2022-08-19T02:24:04;97728.31;;;21.33;67.42
46722;BME280;32455;43.430;23.136;2022-08-19T02:26:50;97746.00;;;21.49;66.31
46722;BME280;32455;43.430;23.136;2022-08-19T02:29:36;97740.03;;;21.61;65.50
46722;BME280;32455;43.430;23.136;2022-08-19T02:32:21;97745.41;;;21.66;65.64
46722;BME280;32455;43.430;23.136;2022-08-19T02:35:07;97732.44;;;21.44;66.02
46722;BME280;32455;43.430;23.136;2022-08-19T02:37:52;97747.03;;;21.40;67.32
46722;BME280;32455;43.430;23.136;2022-08-19T02:41:02;97739.28;;;21.28;67.31
46722;BME280;32455;43.430;23.136;2022-08-19T02:43:48;97754.13;;;21.55;66.20
46722;BME280;32455;43.430;23.136;2022-08-19T02:46:33;97738.03;;;21.53;65.43
46722;BME280;32455;43.430;23.136;2022-08-19T02:49:19;97755.84;;;21.64;64.61
46722;BME280;32455;43.430;23.136;2022-08-19T02:52:04;97745.22;;;21.63;64.85
46722;BME280;32455;43.430;23.136;2022-08-19T02:54:50;97744.41;;;21.76;63.85
46722;BME280;32455;43.430;23.136;2022-08-19T02:57:35;97738.28;;;21.79;64.21
46722;BME280;32455;43.430;23.136;2022-08-19T03:00:21;97743.47;;;21.81;64.25
46722;BME280;32455;43.430;23.136;2022-08-19T03:03:08;97741.66;;;21.76;64.44
46722;BME280;32455;43.430;23.136;2022-08-19T03:06:10;97750.38;;;21.64;65.64
46722;BME280;32455;43.430;23.136;2022-08-19T03:08:57;97746.00;;;21.49;66.21
46722;BME280;32455;43.430;23.136;2022-08-19T03:11:43;97756.25;;;21.58;65.98
46722;BME280;32455;43.430;23.136;2022-08-19T03:14:31;97732.75;;;21.43;66.36
46722;BME280;32455;43.430;23.136;2022-08-19T03:17:17;97743.69;;;21.43;66.30
46722;BME280;32455;43.430;23.136;2022-08-19T03:20:03;97758.88;;;21.49;66.10
46722;BME280;32455;43.430;23.136;2022-08-19T03:22:49;97753.72;;;21.47;65.62
46722;BME280;32455;43.430;23.136;2022-08-19T03:25:39;97765.16;;;21.49;65.40
46722;BME280;32455;43.430;23.136;2022-08-19T03:28:26;97754.50;;;21.20;66.73
46722;BME280;32455;43.430;23.136;2022-08-19T03:31:14;97752.03;;;21.19;66.85
46722;BME280;32455;43.430;23.136;2022-08-19T03:33:59;97766.72;;;21.23;67.78
46722;BME280;32455;43.430;23.136;2022-08-19T03:36:45;97766.41;;;21.11;67.85
46722;BME280;32455;43.430;23.136;2022-08-19T03:39:31;97770.81;;;20.93;68.72
46722;BME280;32455;43.430;23.136;2022-08-19T03:42:17;97763.03;;;20.86;69.15
46722;BME280;32455;43.430;23.136;2022-08-19T03:45:02;97759.88;;;20.93;69.08
46722;BME280;32455;43.430;23.136;2022-08-19T03:47:48;97761.59;;;20.89;69.79
46722;BME280;32455;43.430;23.136;2022-08-19T03:50:38;97776.59;;;20.91;70.08
46722;BME280;32455;43.430;23.136;2022-08-19T03:53:26;97773.53;;;20.93;70.20
46722;BME280;32455;43.430;23.136;2022-08-19T03:56:12;97781.97;;;20.96;70.14
46722;BME280;32455;43.430;23.136;2022-08-19T03:58:58;97775.03;;;20.85;70.18
46722;BME280;32455;43.430;23.136;2022-08-19T04:01:44;97777.50;;;20.87;70.66
46722;BME280;32455;43.430;23.136;2022-08-19T04:04:30;97782.06;;;20.91;71.24
46722;BME280;32455;43.430;23.136;2022-08-19T04:07:16;97795.25;;;21.03;71.64
46722;BME280;32455;43.430;23.136;2022-08-19T04:10:03;97787.22;;;21.07;71.26
46722;BME280;32455;43.430;23.136;2022-08-19T04:12:48;97798.16;;;21.07;72.17
46722;BME280;32455;43.430;23.136;2022-08-19T04:15:39;97794.84;;;21.10;73.17
46722;BME280;32455;43.430;23.136;2022-08-19T04:18:26;97797.88;;;21.08;73.89
46722;BME280;32455;43.430;23.136;2022-08-19T04:21:21;97796.06;;;21.17;74.02
46722;BME280;32455;43.430;23.136;2022-08-19T04:24:06;97805.72;;;21.29;74.38
46722;BME280;32455;43.430;23.136;2022-08-19T04:26:54;97792.22;;;21.18;74.56
46722;BME280;32455;43.430;23.136;2022-08-19T04:29:39;97794.47;;;21.30;75.12
46722;BME280;32455;43.430;23.136;2022-08-19T04:32:25;97805.03;;;21.37;76.21
46722;BME280;32455;43.430;23.136;2022-08-19T04:35:10;97799.28;;;21.38;76.96
46722;BME280;32455;43.430;23.136;2022-08-19T04:37:55;97798.97;;;21.54;77.08
46722;BME280;32455;43.430;23.136;2022-08-19T04:40:43;97807.47;;;21.66;77.27
46722;BME280;32455;43.430;23.136;2022-08-19T04:43:48;97803.84;;;21.70;77.83
46722;BME280;32455;43.430;23.136;2022-08-19T04:46:33;97803.03;;;21.70;78.73
46722;BME280;32455;43.430;23.136;2022-08-19T04:49:21;97818.63;;;21.83;79.01
46722;BME280;32455;43.430;23.136;2022-08-19T04:52:07;97807.88;;;22.00;78.32
46722;BME280;32455;43.430;23.136;2022-08-19T04:54:53;97815.88;;;22.11;78.79
46722;BME280;32455;43.430;23.136;2022-08-19T04:57:40;97808.91;;;22.18;78.69
46722;BME280;32455;43.430;23.136;2022-08-19T05:00:26;97802.13;;;22.16;79.22
46722;BME280;32455;43.430;23.136;2022-08-19T05:03:11;97808.56;;;22.34;78.86
46722;BME280;32455;43.430;23.136;2022-08-19T05:05:58;97801.34;;;22.38;79.06
46722;BME280;32455;43.430;23.136;2022-08-19T05:08:44;97817.84;;;22.46;79.29
46722;BME280;32455;43.430;23.136;2022-08-19T05:11:33;97826.47;;;22.54;78.52
46722;BME280;32455;43.430;23.136;2022-08-19T05:14:19;97809.47;;;22.65;79.48
46722;BME280;32455;43.430;23.136;2022-08-19T05:17:06;97813.91;;;22.75;79.08
46722;BME280;32455;43.430;23.136;2022-08-19T05:19:51;97820.56;;;22.83;78.99
46722;BME280;32455;43.430;23.136;2022-08-19T05:22:55;97820.13;;;22.89;77.99
46722;BME280;32455;43.430;23.136;2022-08-19T05:25:41;97812.94;;;22.93;77.68
46722;BME280;32455;43.430;23.136;2022-08-19T05:28:26;97833.75;;;23.17;78.06
46722;BME280;32455;43.430;23.136;2022-08-19T05:31:12;97815.47;;;23.12;73.71
46722;BME280;32455;43.430;23.136;2022-08-19T05:33:58;97815.88;;;23.28;73.53
46722;BME280;32455;43.430;23.136;2022-08-19T05:36:44;97836.44;;;23.39;72.52
46722;BME280;32455;43.430;23.136;2022-08-19T05:39:31;97830.06;;;23.53;71.71
46722;BME280;32455;43.430;23.136;2022-08-19T05:42:17;97840.06;;;23.57;70.56
46722;BME280;32455;43.430;23.136;2022-08-19T05:45:06;97832.38;;;23.68;68.59
46722;BME280;32455;43.430;23.136;2022-08-19T05:47:51;97826.94;;;23.77;67.54
46722;BME280;32455;43.430;23.136;2022-08-19T05:50:39;97830.06;;;23.92;66.63
46722;BME280;32455;43.430;23.136;2022-08-19T05:53:25;97834.78;;;24.01;66.82
46722;BME280;32455;43.430;23.136;2022-08-19T05:56:15;97832.53;;;24.03;66.25
46722;BME280;32455;43.430;23.136;2022-08-19T05:59:01;97829.28;;;24.01;64.46
46722;BME280;32455;43.430;23.136;2022-08-19T06:01:48;97814.13;;;24.03;63.05
46722;BME280;32455;43.430;23.136;2022-08-19T06:04:36;97825.78;;;24.17;62.14
46722;BME280;32455;43.430;23.136;2022-08-19T06:07:23;97836.47;;;24.36;60.04
46722;BME280;32455;43.430;23.136;2022-08-19T06:10:10;97832.16;;;24.44;61.56
46722;BME280;32455;43.430;23.136;2022-08-19T06:12:56;97837.66;;;24.53;60.38
46722;BME280;32455;43.430;23.136;2022-08-19T06:15:41;97828.25;;;24.45;59.04
46722;BME280;32455;43.430;23.136;2022-08-19T06:18:28;97842.00;;;24.54;58.77
46722;BME280;32455;43.430;23.136;2022-08-19T06:21:13;97834.25;;;24.47;59.77
46722;BME280;32455;43.430;23.136;2022-08-19T06:23:58;97840.22;;;24.66;60.23
46722;BME280;32455;43.430;23.136;2022-08-19T06:26:46;97843.16;;;24.79;58.26
46722;BME280;32455;43.430;23.136;2022-08-19T06:29:32;97839.59;;;24.78;58.52
46722;BME280;32455;43.430;23.136;2022-08-19T06:32:18;97841.06;;;25.02;60.91
46722;BME280;32455;43.430;23.136;2022-08-19T06:35:04;97843.00;;;25.01;59.63
46722;BME280;32455;43.430;23.136;2022-08-19T06:37:50;97835.38;;;25.07;59.43
46722;BME280;32455;43.430;23.136;2022-08-19T06:40:36;97848.34;;;25.15;59.26
46722;BME280;32455;43.430;23.136;2022-08-19T06:43:23;97843.47;;;25.20;57.94
46722;BME280;32455;43.430;23.136;2022-08-19T06:46:13;97851.19;;;25.44;58.62
46722;BME280;32455;43.430;23.136;2022-08-19T06:48:59;97837.09;;;25.46;57.20
46722;BME280;32455;43.430;23.136;2022-08-19T06:51:46;97847.63;;;25.53;57.84
46722;BME280;32455;43.430;23.136;2022-08-19T06:54:34;97840.97;;;25.54;58.60
46722;BME280;32455;43.430;23.136;2022-08-19T06:57:21;97843.16;;;25.78;59.40
46722;BME280;32455;43.430;23.136;2022-08-19T07:00:07;97843.81;;;25.83;58.29
46722;BME280;32455;43.430;23.136;2022-08-19T07:02:56;97834.91;;;25.78;56.81
46722;BME280;32455;43.430;23.136;2022-08-19T07:05:41;97842.63;;;25.93;57.32
46722;BME280;32455;43.430;23.136;2022-08-19T07:08:27;97849.50;;;26.08;57.61
46722;BME280;32455;43.430;23.136;2022-08-19T07:11:17;97844.47;;;26.39;57.41
46722;BME280;32455;43.430;23.136;2022-08-19T07:14:03;97851.78;;;26.35;57.69
46722;BME280;32455;43.430;23.136;2022-08-19T07:16:53;97864.66;;;26.52;58.10
46722;BME280;32455;43.430;23.136;2022-08-19T07:19:40;97863.81;;;26.60;58.79
46722;BME280;32455;43.430;23.136;2022-08-19T07:22:26;97856.88;;;26.75;57.48
46722;BME280;32455;43.430;23.136;2022-08-19T07:25:11;97861.16;;;26.85;57.68
46722;BME280;32455;43.430;23.136;2022-08-19T07:27:58;97859.50;;;27.13;56.19
46722;BME280;32455;43.430;23.136;2022-08-19T07:30:43;97864.13;;;27.21;56.45
46722;BME280;32455;43.430;23.136;2022-08-19T07:33:29;97879.06;;;27.20;55.59
46722;BME280;32455;43.430;23.136;2022-08-19T07:36:20;97865.34;;;27.45;56.26
46722;BME280;32455;43.430;23.136;2022-08-19T07:39:10;97879.47;;;27.43;53.19
46722;BME280;32455;43.430;23.136;2022-08-19T07:41:58;97888.16;;;27.54;54.27
46722;BME280;32455;43.430;23.136;2022-08-19T07:44:44;97887.03;;;27.67;54.06
46722;BME280;32455;43.430;23.136;2022-08-19T07:47:30;97883.41;;;27.76;53.94
46722;BME280;32455;43.430;23.136;2022-08-19T07:50:16;97877.78;;;27.97;54.09
46722;BME280;32455;43.430;23.136;2022-08-19T07:53:03;97891.69;;;28.00;53.32
46722;BME280;32455;43.430;23.136;2022-08-19T07:55:49;97885.94;;;27.81;52.26
46722;BME280;32455;43.430;23.136;2022-08-19T07:58:37;97888.00;;;27.96;53.00
46722;BME280;32455;43.430;23.136;2022-08-19T08:01:26;97885.84;;;28.14;53.77
46722;BME280;32455;43.430;23.136;2022-08-19T08:04:13;97881.34;;;28.21;53.14
46722;BME280;32455;43.430;23.136;2022-08-19T08:07:18;97883.53;;;28.28;53.67
46722;BME280;32455;43.430;23.136;2022-08-19T08:10:22;97883.31;;;28.33;53.06
46722;BME280;32455;43.430;23.136;2022-08-19T08:13:08;97878.56;;;28.34;52.60
46722;BME280;32455;43.430;23.136;2022-08-19T08:15:53;97884.91;;;28.59;52.64
46722;BME280;32455;43.430;23.136;2022-08-19T08:18:41;97880.28;;;28.75;53.18
46722;BME280;32455;43.430;23.136;2022-08-19T08:21:29;97875.84;;;28.99;51.21
46722;BME280;32455;43.430;23.136;2022-08-19T08:24:15;97878.03;;;29.05;51.26
46722;BME280;32455;43.430;23.136;2022-08-19T08:27:00;97875.28;;;28.93;50.62
46722;BME280;32455;43.430;23.136;2022-08-19T08:29:48;97881.81;;;29.13;50.88
46722;BME280;32455;43.430;23.136;2022-08-19T08:32:33;97874.75;;;29.15;51.01
46722;BME280;32455;43.430;23.136;2022-08-19T08:35:21;97865.84;;;29.22;52.03
46722;BME280;32455;43.430;23.136;2022-08-19T08:38:07;97864.69;;;29.23;51.02
46722;BME280;32455;43.430;23.136;2022-08-19T08:41:05;97859.81;;;29.32;50.25
46722;BME280;32455;43.430;23.136;2022-08-19T08:43:52;97857.19;;;29.52;49.60
46722;BME280;32455;43.430;23.136;2022-08-19T08:46:43;97844.84;;;29.49;51.14
46722;BME280;32455;43.430;23.136;2022-08-19T08:52:49;97843.75;;;29.54;48.25
46722;BME280;32455;43.430;23.136;2022-08-19T08:55:36;97848.19;;;29.86;48.23
46722;BME280;32455;43.430;23.136;2022-08-19T08:58:30;97847.75;;;30.00;46.95
46722;BME280;32455;43.430;23.136;2022-08-19T09:01:17;97843.91;;;29.89;48.39
46722;BME280;32455;43.430;23.136;2022-08-19T09:04:06;97854.78;;;29.98;49.19
46722;BME280;32455;43.430;23.136;2022-08-19T09:10:14;97849.44;;;30.05;47.36
46722;BME280;32455;43.430;23.136;2022-08-19T09:16:23;97839.00;;;29.98;48.03
46722;BME280;32455;43.430;23.136;2022-08-19T09:19:09;97841.75;;;30.14;48.22
46722;BME280;32455;43.430;23.136;2022-08-19T09:21:55;97844.00;;;30.24;47.87
46722;BME280;32455;43.430;23.136;2022-08-19T09:24:41;97839.78;;;30.30;48.04
46722;BME280;32455;43.430;23.136;2022-08-19T09:27:27;97837.81;;;30.31;44.21
46722;BME280;32455;43.430;23.136;2022-08-19T09:30:16;97844.50;;;30.46;46.23
46722;BME280;32455;43.430;23.136;2022-08-19T09:33:02;97837.25;;;30.41;45.75
46722;BME280;32455;43.430;23.136;2022-08-19T09:35:47;97837.31;;;30.44;45.28
46722;BME280;32455;43.430;23.136;2022-08-19T09:38:33;97836.84;;;30.58;44.75
46722;BME280;32455;43.430;23.136;2022-08-19T09:41:21;97838.09;;;30.61;45.36
46722;BME280;32455;43.430;23.136;2022-08-19T09:44:07;97823.78;;;30.59;46.12
46722;BME280;32455;43.430;23.136;2022-08-19T09:46:53;97829.66;;;30.73;44.66
46722;BME280;32455;43.430;23.136;2022-08-19T09:49:39;97814.47;;;30.86;46.72
46722;BME280;32455;43.430;23.136;2022-08-19T09:52:25;97814.84;;;30.85;44.42
46722;BME280;32455;43.430;23.136;2022-08-19T09:55:11;97830.25;;;31.02;42.44
46722;BME280;32455;43.430;23.136;2022-08-19T09:57:59;97830.91;;;31.14;42.96
46722;BME280;32455;43.430;23.136;2022-08-19T10:00:43;97813.59;;;31.02;43.62
46722;BME280;32455;43.430;23.136;2022-08-19T10:03:32;97820.91;;;31.10;42.54
46722;BME280;32455;43.430;23.136;2022-08-19T10:06:17;97810.88;;;31.25;43.55
46722;BME280;32455;43.430;23.136;2022-08-19T10:09:04;97803.00;;;31.27;41.48
46722;BME280;32455;43.430;23.136;2022-08-19T10:11:51;97794.81;;;31.34;41.82
46722;BME280;32455;43.430;23.136;2022-08-19T10:14:36;97800.03;;;31.39;42.50
46722;BME280;32455;43.430;23.136;2022-08-19T10:17:22;97802.91;;;31.42;43.04
46722;BME280;32455;43.430;23.136;2022-08-19T10:20:10;97802.91;;;31.42;42.07
46722;BME280;32455;43.430;23.136;2022-08-19T10:22:56;97803.59;;;31.36;40.00
46722;BME280;32455;43.430;23.136;2022-08-19T10:25:44;97794.22;;;31.25;41.40
46722;BME280;32455;43.430;23.136;2022-08-19T10:28:30;97794.31;;;31.28;40.46
46722;BME280;32455;43.430;23.136;2022-08-19T10:31:21;97794.38;;;31.32;41.79
46722;BME280;32455;43.430;23.136;2022-08-19T10:34:08;97788.59;;;31.40;41.35
46722;BME280;32455;43.430;23.136;2022-08-19T10:36:55;97789.63;;;31.55;41.80
46722;BME280;32455;43.430;23.136;2022-08-19T10:39:41;97798.56;;;31.68;40.22
46722;BME280;32455;43.430;23.136;2022-08-19T10:42:27;97794.69;;;31.73;40.68
46722;BME280;32455;43.430;23.136;2022-08-19T10:45:14;97787.97;;;31.74;40.99
46722;BME280;32455;43.430;23.136;2022-08-19T10:47:59;97786.47;;;31.80;43.25
46722;BME280;32455;43.430;23.136;2022-08-19T10:50:44;97796.41;;;31.81;42.69
46722;BME280;32455;43.430;23.136;2022-08-19T10:53:49;97794.25;;;31.94;41.26
46722;BME280;32455;43.430;23.136;2022-08-19T10:56:35;97799.50;;;31.99;41.18
46722;BME280;32455;43.430;23.136;2022-08-19T10:59:39;97793.38;;;32.12;41.72
46722;BME280;32455;43.430;23.136;2022-08-19T11:02:25;97788.16;;;32.11;42.36
46722;BME280;32455;43.430;23.136;2022-08-19T11:05:12;97785.91;;;32.20;41.77
46722;BME280;32455;43.430;23.136;2022-08-19T11:07:57;97784.84;;;32.28;40.44
46722;BME280;32455;43.430;23.136;2022-08-19T11:10:43;97766.72;;;32.11;37.05
46722;BME280;32455;43.430;23.136;2022-08-19T11:13:30;97766.44;;;32.16;38.99
46722;BME280;32455;43.430;23.136;2022-08-19T11:16:20;97767.16;;;32.40;41.35
46722;BME280;32455;43.430;23.136;2022-08-19T11:19:08;97770.09;;;32.51;39.71
46722;BME280;32455;43.430;23.136;2022-08-19T11:21:54;97761.38;;;32.52;39.27
46722;BME280;32455;43.430;23.136;2022-08-19T11:24:39;97763.25;;;32.45;38.53
46722;BME280;32455;43.430;23.136;2022-08-19T11:27:25;97749.22;;;32.37;38.42
46722;BME280;32455;43.430;23.136;2022-08-19T11:30:12;97763.72;;;32.50;39.62
46722;BME280;32455;43.430;23.136;2022-08-19T11:32:58;97755.22;;;32.70;38.95
46722;BME280;32455;43.430;23.136;2022-08-19T11:35:45;97753.00;;;32.82;38.83
46722;BME280;32455;43.430;23.136;2022-08-19T11:38:31;97752.50;;;32.73;37.27
46722;BME280;32455;43.430;23.136;2022-08-19T11:41:19;97737.69;;;32.65;37.13
46722;BME280;32455;43.430;23.136;2022-08-19T11:44:05;97746.53;;;32.75;37.85
46722;BME280;32455;43.430;23.136;2022-08-19T11:46:52;97743.06;;;32.81;37.03
46722;BME280;32455;43.430;23.136;2022-08-19T11:49:38;97734.34;;;32.86;39.27
46722;BME280;32455;43.430;23.136;2022-08-19T11:52:23;97728.13;;;32.97;37.22
46722;BME280;32455;43.430;23.136;2022-08-19T11:55:09;97733.00;;;33.07;37.46
46722;BME280;32455;43.430;23.136;2022-08-19T11:57:55;97723.78;;;32.99;35.78
46722;BME280;32455;43.430;23.136;2022-08-19T12:00:41;97722.72;;;33.11;34.39
46722;BME280;32455;43.430;23.136;2022-08-19T12:03:26;97716.00;;;33.15;36.44
46722;BME280;32455;43.430;23.136;2022-08-19T12:06:16;97717.59;;;33.17;34.85
46722;BME280;32455;43.430;23.136;2022-08-19T12:09:05;97715.19;;;33.15;34.68
46722;BME280;32455;43.430;23.136;2022-08-19T12:11:51;97712.06;;;33.20;34.84
46722;BME280;32455;43.430;23.136;2022-08-19T12:14:36;97713.34;;;33.30;36.25
46722;BME280;32455;43.430;23.136;2022-08-19T12:17:24;97709.00;;;33.32;35.07
46722;BME280;32455;43.430;23.136;2022-08-19T12:20:12;97701.41;;;33.29;34.45
46722;BME280;32455;43.430;23.136;2022-08-19T12:22:58;97701.81;;;33.31;35.02
46722;BME280;32455;43.430;23.136;2022-08-19T12:25:46;97700.66;;;33.36;34.12
46722;BME280;32455;43.430;23.136;2022-08-19T12:28:35;97705.88;;;33.41;34.72
46722;BME280;32455;43.430;23.136;2022-08-19T12:31:21;97691.88;;;33.34;33.21
46722;BME280;32455;43.430;23.136;2022-08-19T12:34:06;97690.31;;;33.36;33.69
46722;BME280;32455;43.430;23.136;2022-08-19T12:36:52;97691.53;;;33.39;33.07
46722;BME280;32455;43.430;23.136;2022-08-19T12:39:41;97691.63;;;33.46;32.18
46722;BME280;32455;43.430;23.136;2022-08-19T12:42:27;97686.78;;;33.43;31.41
46722;BME280;32455;43.430;23.136;2022-08-19T12:45:13;97691.25;;;33.51;33.25
46722;BME280;32455;43.430;23.136;2022-08-19T12:47:58;97692.50;;;33.57;33.35
46722;BME280;32455;43.430;23.136;2022-08-19T12:50:45;97694.94;;;33.66;32.18
46722;BME280;32455;43.430;23.136;2022-08-19T12:53:30;97680.56;;;33.60;32.35
46722;BME280;32455;43.430;23.136;2022-08-19T12:56:16;97686.97;;;33.64;31.72
46722;BME280;32455;43.430;23.136;2022-08-19T12:59:03;97685.78;;;33.65;31.39
46722;BME280;32455;43.430;23.136;2022-08-19T13:01:49;97673.38;;;33.56;30.69
46722;BME280;32455;43.430;23.136;2022-08-19T13:04:35;97681.81;;;33.63;30.90
46722;BME280;32455;43.430;23.136;2022-08-19T13:07:23;97685.88;;;33.76;31.39
46722;BME280;32455;43.430;23.136;2022-08-19T13:10:10;97667.94;;;33.77;31.66
46722;BME280;32455;43.430;23.136;2022-08-19T13:12:57;97669.63;;;33.89;30.76
46722;BME280;32455;43.430;23.136;2022-08-19T13:15:44;97665.25;;;33.88;31.05
46722;BME280;32455;43.430;23.136;2022-08-19T13:18:30;97672.09;;;33.98;34.11
46722;BME280;32455;43.430;23.136;2022-08-19T13:21:17;97658.53;;;34.00;32.59
46722;BME280;32455;43.430;23.136;2022-08-19T13:24:04;97652.63;;;34.05;32.32
46722;BME280;32455;43.430;23.136;2022-08-19T13:26:50;97664.59;;;34.12;31.68
46722;BME280;32455;43.430;23.136;2022-08-19T13:29:35;97651.44;;;34.06;31.10
46722;BME280;32455;43.430;23.136;2022-08-19T13:32:39;97654.66;;;34.15;30.85
46722;BME280;32455;43.430;23.136;2022-08-19T13:35:50;97647.09;;;34.16;28.96
46722;BME280;32455;43.430;23.136;2022-08-19T13:38:34;97645.50;;;34.18;29.23
46722;BME280;32455;43.430;23.136;2022-08-19T13:41:21;97654.69;;;34.22;29.74
46722;BME280;32455;43.430;23.136;2022-08-19T13:44:06;97638.38;;;34.28;30.61
46722;BME280;32455;43.430;23.136;2022-08-19T13:46:51;97642.72;;;34.22;32.17
46722;BME280;32455;43.430;23.136;2022-08-19T13:49:38;97648.72;;;34.24;32.84
46722;BME280;32455;43.430;23.136;2022-08-19T13:52:23;97629.97;;;34.13;31.52
46722;BME280;32455;43.430;23.136;2022-08-19T13:55:11;97629.19;;;34.24;30.87
46722;BME280;32455;43.430;23.136;2022-08-19T13:57:59;97639.22;;;34.43;30.02
46722;BME280;32455;43.430;23.136;2022-08-19T14:00:46;97620.47;;;34.32;29.21
46722;BME280;32455;43.430;23.136;2022-08-19T14:03:32;97641.56;;;34.30;30.61
46722;BME280;32455;43.430;23.136;2022-08-19T14:06:18;97631.63;;;34.36;31.23
46722;BME280;32455;43.430;23.136;2022-08-19T14:09:03;97636.91;;;34.59;30.86
46722;BME280;32455;43.430;23.136;2022-08-19T14:11:50;97629.72;;;34.54;29.59
46722;BME280;32455;43.430;23.136;2022-08-19T14:14:39;97626.53;;;34.63;30.99
46722;BME280;32455;43.430;23.136;2022-08-19T14:17:25;97624.94;;;34.48;29.93
46722;BME280;32455;43.430;23.136;2022-08-19T14:20:11;97623.75;;;34.59;29.96
46722;BME280;32455;43.430;23.136;2022-08-19T14:22:57;97626.91;;;34.54;32.12
46722;BME280;32455;43.430;23.136;2022-08-19T14:25:44;97634.41;;;34.32;29.44
46722;BME280;32455;43.430;23.136;2022-08-19T14:28:29;97632.00;;;34.34;32.33
46722;BME280;32455;43.430;23.136;2022-08-19T14:31:17;97616.84;;;34.18;32.26
46722;BME280;32455;43.430;23.136;2022-08-19T14:34:04;97616.03;;;34.21;34.48
46722;BME280;32455;43.430;23.136;2022-08-19T14:36:49;97614.47;;;34.27;33.68
46722;BME280;32455;43.430;23.136;2022-08-19T14:39:34;97602.88;;;34.25;32.03
46722;BME280;32455;43.430;23.136;2022-08-19T14:42:19;97610.84;;;34.16;32.56
46722;BME280;32455;43.430;23.136;2022-08-19T14:45:05;97613.63;;;34.19;34.20